createdAt,value
2017-04-07T00:00:17.404Z,1009.98
2017-04-07T00:00:39.100Z,1010.12
2017-04-07T00:01:00.903Z,1010.03
2017-04-07T00:01:22.617Z,1009.96
2017-04-07T00:01:49.094Z,1010.00
2017-04-07T00:02:10.878Z,1009.91
2017-04-07T00:03:09.223Z,1010.07
2017-04-07T00:03:35.716Z,1010.19
2017-04-07T00:03:57.543Z,1010.20
2017-04-07T00:04:19.238Z,1010.08
2017-04-07T00:04:40.930Z,1010.18
2017-04-07T00:05:33.977Z,1010.01
2017-04-07T00:05:55.690Z,1010.12
2017-04-07T00:06:17.400Z,1010.13
2017-04-07T00:06:39.194Z,1010.31
2017-04-07T00:07:00.903Z,1010.05
2017-04-07T00:07:22.604Z,1009.85
2017-04-07T00:07:44.294Z,1009.76
2017-04-07T00:08:06.078Z,1010.01
2017-04-07T00:08:27.781Z,1010.08
2017-04-07T00:08:49.504Z,1009.82
2017-04-07T00:09:15.982Z,1009.97
2017-04-07T00:09:37.797Z,1010.08
2017-04-07T00:09:59.495Z,1010.01
2017-04-07T00:10:25.963Z,1010.00
2017-04-07T00:10:47.778Z,1010.06
2017-04-07T00:11:14.220Z,1009.93
2017-04-07T00:11:35.921Z,1009.89
2017-04-07T00:12:43.201Z,1009.79
2017-04-07T00:13:04.922Z,1009.93
2017-04-07T00:13:26.629Z,1009.81
2017-04-07T00:13:53.151Z,1009.91
2017-04-07T00:14:14.935Z,1010.16
2017-04-07T00:14:36.623Z,1010.20
2017-04-07T00:14:58.345Z,1010.24
2017-04-07T00:15:20.124Z,1010.22
2017-04-07T00:16:22.636Z,1009.89
2017-04-07T00:16:44.340Z,1009.86
2017-04-07T00:17:06.142Z,1009.89
2017-04-07T00:18:08.637Z,1009.91
2017-04-07T00:18:30.433Z,1009.86
2017-04-07T00:19:28.750Z,1010.23
2017-04-07T00:19:50.554Z,1010.06
2017-04-07T00:21:56.259Z,1010.17
2017-04-07T00:22:17.969Z,1010.13
2017-04-07T00:23:11.003Z,1009.76
2017-04-07T00:23:37.486Z,1009.89
2017-04-07T00:23:59.290Z,1009.91
2017-04-07T00:24:20.989Z,1009.78
2017-04-07T00:25:19.417Z,1009.77
2017-04-07T00:25:45.905Z,1009.85
2017-04-07T00:26:07.644Z,1010.04
2017-04-07T00:26:29.391Z,1009.97
2017-04-07T00:26:55.858Z,1009.77
2017-04-07T00:27:17.554Z,1009.96
2017-04-07T00:28:10.582Z,1009.67
2017-04-07T00:28:32.287Z,1009.90
2017-04-07T00:28:53.987Z,1009.73
2017-04-07T00:29:15.704Z,1009.81
2017-04-07T00:29:42.267Z,1009.85
2017-04-07T00:30:03.969Z,1009.84
2017-04-07T00:30:30.440Z,1009.77
2017-04-07T00:30:52.241Z,1009.83
2017-04-07T00:31:18.720Z,1009.94
2017-04-07T00:31:40.429Z,1009.92
2017-04-07T00:32:33.487Z,1009.88
2017-04-07T00:32:59.972Z,1009.73
2017-04-07T00:33:21.663Z,1009.69
2017-04-07T00:34:14.623Z,1009.75
2017-04-07T00:35:07.673Z,1009.95
2017-04-07T00:35:29.376Z,1009.71
2017-04-07T00:36:27.749Z,1009.87
2017-04-07T00:36:54.231Z,1009.67
2017-04-07T00:37:16.023Z,1010.02
2017-04-07T00:37:37.722Z,1009.73
2017-04-07T00:37:59.574Z,1009.66
2017-04-07T00:38:26.049Z,1009.65
2017-04-07T00:38:47.754Z,1009.55
2017-04-07T00:39:14.236Z,1009.75
2017-04-07T00:39:35.926Z,1009.69
2017-04-07T00:39:57.740Z,1009.67
2017-04-07T00:40:24.220Z,1009.61
2017-04-07T00:40:46.118Z,1009.71
2017-04-07T00:41:39.236Z,1009.74
2017-04-07T00:42:00.831Z,1009.86
2017-04-07T00:42:27.400Z,1009.75
2017-04-07T00:42:49.201Z,1009.82
2017-04-07T00:43:10.884Z,1009.72
2017-04-07T00:43:37.359Z,1009.62
2017-04-07T00:43:59.238Z,1009.91
2017-04-07T00:44:20.940Z,1009.76
2017-04-07T00:44:42.733Z,1009.66
2017-04-07T00:45:06.956Z,1009.68
2017-04-07T00:46:00.094Z,1009.58
2017-04-07T00:46:21.976Z,1009.56
2017-04-07T00:46:48.556Z,1009.74
2017-04-07T00:47:10.339Z,1009.88
2017-04-07T00:48:03.295Z,1009.61
2017-04-07T00:48:25.063Z,1009.61
2017-04-07T00:48:46.765Z,1009.71
2017-04-07T00:49:08.468Z,1009.54
2017-04-07T00:49:30.168Z,1009.60
2017-04-07T00:50:23.132Z,1009.64
2017-04-07T00:50:49.744Z,1009.78
2017-04-07T00:51:11.442Z,1009.46
2017-04-07T00:52:09.735Z,1009.65
2017-04-07T00:52:31.423Z,1009.54
2017-04-07T00:52:53.138Z,1009.62
2017-04-07T00:53:19.615Z,1009.58
2017-04-07T00:53:41.330Z,1009.55
2017-04-07T00:54:03.045Z,1009.51
2017-04-07T00:54:29.510Z,1009.69
2017-04-07T00:54:51.225Z,1009.53
2017-04-07T00:55:44.185Z,1009.56
2017-04-07T00:57:17.974Z,1009.32
2017-04-07T00:57:39.693Z,1009.39
2017-04-07T00:58:32.647Z,1009.56
2017-04-07T00:58:59.118Z,1009.63
2017-04-07T00:59:20.933Z,1009.51
2017-04-07T00:59:47.407Z,1009.31
2017-04-07T01:00:09.094Z,1009.43
2017-04-07T01:00:35.604Z,1009.16
2017-04-07T01:00:57.301Z,1009.33
2017-04-07T01:01:19.018Z,1009.39
2017-04-07T01:02:17.293Z,1009.34
2017-04-07T01:02:38.994Z,1009.45
2017-04-07T01:03:00.687Z,1009.46
2017-04-07T01:03:27.172Z,1009.39
2017-04-07T01:03:48.863Z,1009.27
2017-04-07T01:04:56.140Z,1009.16
2017-04-07T01:05:17.842Z,1009.32
2017-04-07T01:05:39.582Z,1009.17
2017-04-07T01:06:32.635Z,1009.32
2017-04-07T01:06:54.342Z,1009.44
2017-04-07T01:07:16.046Z,1009.30
2017-04-07T01:07:42.541Z,1009.29
2017-04-07T01:08:09.019Z,1009.08
2017-04-07T01:08:30.721Z,1009.06
2017-04-07T01:09:23.764Z,1009.51
2017-04-07T01:09:50.256Z,1009.47
2017-04-07T01:10:11.954Z,1009.26
2017-04-07T01:11:14.465Z,1009.10
2017-04-07T01:11:36.245Z,1009.16
2017-04-07T01:11:57.972Z,1009.08
2017-04-07T01:12:19.698Z,1009.10
2017-04-07T01:12:41.359Z,1009.61
2017-04-07T01:13:07.826Z,1009.46
2017-04-07T01:13:29.548Z,1009.13
2017-04-07T01:14:22.510Z,1009.18
2017-04-07T01:14:44.213Z,1009.26
2017-04-07T01:15:42.546Z,1009.21
2017-04-07T01:16:35.578Z,1009.32
2017-04-07T01:16:57.286Z,1009.23
2017-04-07T01:17:23.758Z,1009.20
2017-04-07T01:17:45.451Z,1009.30
2017-04-07T01:18:07.157Z,1009.13
2017-04-07T01:18:28.858Z,1009.31
2017-04-07T01:18:50.569Z,1009.30
2017-04-07T01:19:12.298Z,1009.19
2017-04-07T01:19:33.985Z,1009.10
2017-04-07T01:19:55.775Z,1009.21
2017-04-07T01:20:48.739Z,1009.31
2017-04-07T01:21:15.304Z,1009.16
2017-04-07T01:21:36.999Z,1009.42
2017-04-07T01:21:58.700Z,1009.33
2017-04-07T01:22:20.393Z,1009.25
2017-04-07T01:23:08.569Z,1009.26
2017-04-07T01:23:30.269Z,1009.18
2017-04-07T01:23:56.753Z,1009.70
2017-04-07T01:24:18.464Z,1009.50
2017-04-07T01:24:44.958Z,1009.18
2017-04-07T01:25:06.677Z,1009.34
2017-04-07T01:25:28.367Z,1009.28
2017-04-07T01:25:50.183Z,1009.07
2017-04-07T01:26:16.659Z,1008.87
2017-04-07T01:26:38.362Z,1009.13
2017-04-07T01:27:04.871Z,1008.98
2017-04-07T01:27:26.594Z,1009.02
2017-04-07T01:27:48.304Z,1009.11
2017-04-07T01:28:10.002Z,1009.11
2017-04-07T01:28:31.702Z,1009.15
2017-04-07T01:28:53.402Z,1009.23
2017-04-07T01:29:15.104Z,1009.23
2017-04-07T01:29:36.802Z,1009.18
2017-04-07T01:29:58.496Z,1009.10
2017-04-07T01:30:56.793Z,1009.04
2017-04-07T01:31:55.015Z,1009.09
2017-04-07T01:32:16.733Z,1009.41
2017-04-07T01:33:09.685Z,1009.27
2017-04-07T01:33:31.394Z,1009.27
2017-04-07T01:34:24.345Z,1009.25
2017-04-07T01:34:46.034Z,1009.06
2017-04-07T01:35:07.734Z,1009.11
2017-04-07T01:35:29.436Z,1009.14
2017-04-07T01:35:51.138Z,1009.03
2017-04-07T01:36:17.612Z,1008.96
2017-04-07T01:36:39.406Z,1009.30
2017-04-07T01:37:37.668Z,1009.00
2017-04-07T01:37:59.377Z,1008.99
2017-04-07T01:38:52.334Z,1009.28
2017-04-07T01:39:45.367Z,1009.08
2017-04-07T01:40:07.062Z,1009.05
2017-04-07T01:40:28.762Z,1009.20
2017-04-07T01:40:50.547Z,1009.19
2017-04-07T01:41:12.250Z,1009.04
2017-04-07T01:42:05.214Z,1009.13
2017-04-07T01:42:26.927Z,1009.07
2017-04-07T01:42:48.636Z,1009.23
2017-04-07T01:43:10.332Z,1009.02
2017-04-07T01:44:03.291Z,1009.04
2017-04-07T01:44:24.994Z,1009.12
2017-04-07T01:44:51.461Z,1009.19
2017-04-07T01:45:13.166Z,1009.34
2017-04-07T01:45:39.635Z,1009.13
2017-04-07T01:46:01.351Z,1009.15
2017-04-07T01:46:23.061Z,1009.04
2017-04-07T01:46:49.532Z,1009.14
2017-04-07T01:47:11.239Z,1009.06
2017-04-07T01:47:32.935Z,1008.99
2017-04-07T01:47:59.410Z,1009.09
2017-04-07T01:48:21.205Z,1009.14
2017-04-07T01:48:42.902Z,1009.17
2017-04-07T01:49:04.610Z,1008.96
2017-04-07T01:49:26.306Z,1009.11
2017-04-07T01:50:24.681Z,1009.04
2017-04-07T01:50:46.377Z,1009.11
2017-04-07T01:51:08.082Z,1009.24
2017-04-07T01:52:10.594Z,1009.11
2017-04-07T01:52:32.282Z,1009.06
2017-04-07T01:52:58.773Z,1008.97
2017-04-07T01:53:20.467Z,1009.04
2017-04-07T01:53:42.191Z,1009.00
2017-04-07T01:54:03.994Z,1009.10
2017-04-07T01:54:25.681Z,1009.03
2017-04-07T01:54:52.266Z,1009.01
2017-04-07T01:55:13.971Z,1009.16
2017-04-07T01:56:12.277Z,1009.06
2017-04-07T01:57:05.280Z,1009.02
2017-04-07T01:57:58.264Z,1009.11
2017-04-07T01:58:24.754Z,1009.24
2017-04-07T01:58:46.456Z,1009.14
2017-04-07T01:59:08.255Z,1008.91
2017-04-07T01:59:29.975Z,1008.97
2017-04-07T01:59:51.678Z,1009.01
2017-04-07T02:00:13.385Z,1008.95
2017-04-07T02:00:39.950Z,1008.99
2017-04-07T02:01:01.737Z,1008.99
2017-04-07T02:01:28.224Z,1009.14
2017-04-07T02:01:50.115Z,1008.96
2017-04-07T02:02:11.817Z,1008.99
2017-04-07T02:02:38.376Z,1009.05
2017-04-07T02:03:00.156Z,1009.04
2017-04-07T02:03:21.863Z,1009.06
2017-04-07T02:04:14.804Z,1009.03
2017-04-07T02:04:36.502Z,1009.07
2017-04-07T02:05:00.395Z,1009.10
2017-04-07T02:05:22.008Z,1009.02
2017-04-07T02:05:43.740Z,1009.14
2017-04-07T02:06:10.191Z,1008.90
2017-04-07T02:06:32.013Z,1008.82
2017-04-07T02:06:53.830Z,1009.04
2017-04-07T02:07:20.310Z,1009.06
2017-04-07T02:07:42.031Z,1009.01
2017-04-07T02:08:03.810Z,1009.03
2017-04-07T02:08:30.282Z,1008.92
2017-04-07T02:08:51.987Z,1009.04
2017-04-07T02:09:13.702Z,1009.13
2017-04-07T02:09:40.280Z,1009.11
2017-04-07T02:10:01.987Z,1009.09
2017-04-07T02:10:54.941Z,1008.94
2017-04-07T02:11:21.427Z,1008.86
2017-04-07T02:11:43.113Z,1009.01
2017-04-07T02:12:04.849Z,1009.01
2017-04-07T02:12:31.315Z,1008.93
2017-04-07T02:12:53.006Z,1008.94
2017-04-07T02:13:14.809Z,1009.09
2017-04-07T02:13:41.285Z,1009.09
2017-04-07T02:14:02.985Z,1008.85
2017-04-07T02:15:01.383Z,1009.15
2017-04-07T02:15:54.324Z,1009.02
2017-04-07T02:16:16.024Z,1009.11
2017-04-07T02:16:37.728Z,1009.09
2017-04-07T02:16:59.513Z,1008.88
2017-04-07T02:17:21.321Z,1008.78
2017-04-07T02:17:43.114Z,1008.84
2017-04-07T02:18:04.805Z,1008.90
2017-04-07T02:18:26.509Z,1008.98
2017-04-07T02:18:53.001Z,1009.11
2017-04-07T02:19:14.696Z,1008.99
2017-04-07T02:19:36.400Z,1008.94
2017-04-07T02:19:58.201Z,1009.01
2017-04-07T02:20:19.985Z,1009.21
2017-04-07T02:20:41.678Z,1009.20
2017-04-07T02:21:03.376Z,1008.98
2017-04-07T02:21:25.070Z,1008.86
2017-04-07T02:22:18.094Z,1009.09
2017-04-07T02:22:39.910Z,1008.92
2017-04-07T02:23:01.707Z,1008.95
2017-04-07T02:23:23.499Z,1009.05
2017-04-07T02:23:49.963Z,1008.85
2017-04-07T02:24:11.658Z,1008.90
2017-04-07T02:24:38.138Z,1009.08
2017-04-07T02:24:59.843Z,1008.94
2017-04-07T02:25:21.544Z,1008.85
2017-04-07T02:25:48.008Z,1008.89
2017-04-07T02:26:09.702Z,1009.02
2017-04-07T02:26:36.270Z,1009.02
2017-04-07T02:26:58.061Z,1009.10
2017-04-07T02:27:24.554Z,1009.02
2017-04-07T02:27:46.262Z,1008.95
2017-04-07T02:28:08.063Z,1008.92
2017-04-07T02:28:29.755Z,1008.96
2017-04-07T02:28:51.440Z,1008.91
2017-04-07T02:29:13.224Z,1008.83
2017-04-07T02:30:06.175Z,1008.92
2017-04-07T02:30:27.888Z,1009.01
2017-04-07T02:31:26.170Z,1008.99
2017-04-07T02:32:19.118Z,1009.10
2017-04-07T02:32:40.849Z,1008.95
2017-04-07T02:33:07.321Z,1008.81
2017-04-07T02:33:29.014Z,1009.06
2017-04-07T02:33:50.806Z,1008.95
2017-04-07T02:34:12.521Z,1008.99
2017-04-07T02:34:34.214Z,1008.85
2017-04-07T02:35:00.690Z,1009.37
2017-04-07T02:35:22.396Z,1009.10
2017-04-07T02:35:44.114Z,1009.01
2017-04-07T02:36:05.899Z,1009.04
2017-04-07T02:36:27.603Z,1009.03
2017-04-07T02:36:54.178Z,1009.17
2017-04-07T02:37:15.892Z,1009.04
2017-04-07T02:37:37.607Z,1009.01
2017-04-07T02:38:04.073Z,1009.07
2017-04-07T02:38:25.773Z,1009.49
2017-04-07T02:38:47.552Z,1009.33
2017-04-07T02:39:09.256Z,1009.19
2017-04-07T02:39:31.046Z,1008.58
2017-04-07T02:39:52.743Z,1008.79
2017-04-07T02:40:19.227Z,1008.88
2017-04-07T02:40:41.038Z,1008.96
2017-04-07T02:41:02.846Z,1008.93
2017-04-07T02:41:24.549Z,1008.94
2017-04-07T02:41:46.265Z,1008.74
2017-04-07T02:42:39.236Z,1009.02
2017-04-07T02:43:01.027Z,1009.13
2017-04-07T02:43:22.729Z,1009.06
2017-04-07T02:43:44.458Z,1009.44
2017-04-07T02:44:11.024Z,1009.09
2017-04-07T02:44:32.716Z,1008.94
2017-04-07T02:44:54.418Z,1009.10
2017-04-07T02:45:47.400Z,1009.38
2017-04-07T02:46:49.995Z,1008.94
2017-04-07T02:47:11.696Z,1008.85
2017-04-07T02:47:33.407Z,1008.92
2017-04-07T02:47:59.872Z,1008.96
2017-04-07T02:48:21.578Z,1008.94
2017-04-07T02:48:48.119Z,1008.80
2017-04-07T02:49:09.930Z,1008.88
2017-04-07T02:49:31.634Z,1008.84
2017-04-07T02:49:53.337Z,1008.97
2017-04-07T02:50:15.114Z,1008.85
2017-04-07T02:50:36.835Z,1008.96
2017-04-07T02:51:03.398Z,1008.83
2017-04-07T02:51:25.111Z,1009.11
2017-04-07T02:51:46.825Z,1009.00
2017-04-07T02:52:13.398Z,1008.90
2017-04-07T02:52:35.085Z,1008.86
2017-04-07T02:53:42.465Z,1009.18
2017-04-07T02:54:04.260Z,1008.76
2017-04-07T02:54:30.743Z,1008.67
2017-04-07T02:54:52.435Z,1008.80
2017-04-07T02:55:18.912Z,1008.99
2017-04-07T02:55:40.604Z,1008.88
2017-04-07T02:56:07.184Z,1009.04
2017-04-07T02:56:28.984Z,1009.03
2017-04-07T02:56:55.460Z,1008.79
2017-04-07T02:57:17.227Z,1008.95
2017-04-07T02:57:38.933Z,1008.96
2017-04-07T02:58:05.416Z,1009.04
2017-04-07T02:58:27.107Z,1008.86
2017-04-07T02:58:48.813Z,1008.81
2017-04-07T02:59:15.281Z,1008.96
2017-04-07T02:59:36.978Z,1008.93
2017-04-07T03:00:03.461Z,1009.14
2017-04-07T03:00:25.149Z,1008.67
2017-04-07T03:00:46.854Z,1008.70
2017-04-07T03:01:39.821Z,1008.83
2017-04-07T03:02:06.292Z,1009.02
2017-04-07T03:02:28.077Z,1008.96
2017-04-07T03:02:54.565Z,1008.86
2017-04-07T03:03:16.387Z,1008.72
2017-04-07T03:03:38.086Z,1008.93
2017-04-07T03:03:59.795Z,1008.97
2017-04-07T03:04:21.521Z,1008.82
2017-04-07T03:05:14.506Z,1008.96
2017-04-07T03:06:17.012Z,1008.76
2017-04-07T03:06:38.811Z,1008.78
2017-04-07T03:07:05.282Z,1008.90
2017-04-07T03:07:26.992Z,1008.98
2017-04-07T03:07:53.548Z,1008.96
2017-04-07T03:08:15.254Z,1008.72
2017-04-07T03:08:37.042Z,1008.76
2017-04-07T03:09:35.310Z,1008.71
2017-04-07T03:09:57.107Z,1008.73
2017-04-07T03:10:18.810Z,1008.94
2017-04-07T03:10:40.511Z,1008.70
2017-04-07T03:11:02.199Z,1008.69
2017-04-07T03:11:55.336Z,1008.99
2017-04-07T03:12:17.043Z,1008.84
2017-04-07T03:12:43.512Z,1008.63
2017-04-07T03:13:05.296Z,1008.87
2017-04-07T03:13:27.002Z,1008.72
2017-04-07T03:13:48.706Z,1008.74
2017-04-07T03:14:10.399Z,1008.78
2017-04-07T03:15:03.450Z,1009.00
2017-04-07T03:15:56.475Z,1008.67
2017-04-07T03:16:59.562Z,1008.79
2017-04-07T03:17:21.389Z,1008.70
2017-04-07T03:18:23.902Z,1008.88
2017-04-07T03:18:45.704Z,1008.83
2017-04-07T03:19:07.412Z,1008.70
2017-04-07T03:19:33.897Z,1008.83
2017-04-07T03:19:55.702Z,1008.75
2017-04-07T03:20:22.154Z,1008.97
2017-04-07T03:20:43.887Z,1008.82
2017-04-07T03:21:10.367Z,1008.77
2017-04-07T03:21:32.146Z,1008.74
2017-04-07T03:21:58.623Z,1008.83
2017-04-07T03:22:20.360Z,1008.72
2017-04-07T03:22:46.847Z,1008.59
2017-04-07T03:23:08.618Z,1008.67
2017-04-07T03:23:35.099Z,1008.77
2017-04-07T03:24:01.575Z,1008.96
2017-04-07T03:24:23.378Z,1008.92
2017-04-07T03:24:45.085Z,1008.75
2017-04-07T03:25:47.680Z,1008.90
2017-04-07T03:26:09.387Z,1008.75
2017-04-07T03:26:31.116Z,1008.84
2017-04-07T03:26:52.823Z,1008.83
2017-04-07T03:27:14.617Z,1008.88
2017-04-07T03:27:36.329Z,1008.73
2017-04-07T03:27:58.038Z,1008.70
2017-04-07T03:28:19.731Z,1008.75
2017-04-07T03:29:12.745Z,1008.92
2017-04-07T03:29:43.993Z,1008.83
2017-04-07T03:30:05.781Z,1008.88
2017-04-07T03:30:58.759Z,1008.86
2017-04-07T03:31:20.546Z,1008.72
2017-04-07T03:31:47.052Z,1008.96
2017-04-07T03:32:08.757Z,1008.68
2017-04-07T03:32:37.241Z,1008.91
2017-04-07T03:32:59.023Z,1008.92
2017-04-07T03:33:52.125Z,1008.62
2017-04-07T03:34:13.834Z,1008.69
2017-04-07T03:34:40.299Z,1008.84
2017-04-07T03:35:01.992Z,1008.90
2017-04-07T03:35:31.497Z,1008.70
2017-04-07T03:35:53.280Z,1008.64
2017-04-07T03:36:14.989Z,1008.73
2017-04-07T03:36:41.481Z,1008.70
2017-04-07T03:37:08.039Z,1008.46
2017-04-07T03:37:34.512Z,1008.67
2017-04-07T03:37:56.301Z,1008.80
2017-04-07T03:38:49.281Z,1008.92
2017-04-07T03:39:42.340Z,1008.67
2017-04-07T03:40:04.043Z,1008.52
2017-04-07T03:40:30.527Z,1008.52
2017-04-07T03:40:52.321Z,1008.70
2017-04-07T03:41:14.045Z,1008.91
2017-04-07T03:41:35.749Z,1008.68
2017-04-07T03:41:57.446Z,1008.70
2017-04-07T03:42:23.930Z,1008.86
2017-04-07T03:42:45.719Z,1008.57
2017-04-07T03:43:07.415Z,1008.68
2017-04-07T03:44:05.903Z,1008.74
2017-04-07T03:44:27.624Z,1008.82
2017-04-07T03:44:49.326Z,1008.72
2017-04-07T03:45:42.359Z,1008.74
2017-04-07T03:46:04.081Z,1008.69
2017-04-07T03:46:30.570Z,1008.53
2017-04-07T03:46:52.389Z,1008.75
2017-04-07T03:47:18.882Z,1009.05
2017-04-07T03:47:40.622Z,1008.75
2017-04-07T03:48:39.107Z,1008.55
2017-04-07T03:49:00.806Z,1008.59
2017-04-07T03:49:27.305Z,1009.10
2017-04-07T03:49:49.137Z,1008.69
2017-04-07T03:50:10.855Z,1008.73
2017-04-07T03:51:03.885Z,1008.73
2017-04-07T03:51:56.935Z,1008.53
2017-04-07T03:52:23.431Z,1008.54
2017-04-07T03:52:45.122Z,1008.88
2017-04-07T03:53:06.928Z,1008.84
2017-04-07T03:53:28.629Z,1008.64
2017-04-07T03:53:52.740Z,1008.78
2017-04-07T03:54:45.790Z,1008.77
2017-04-07T03:55:07.505Z,1008.92
2017-04-07T03:56:00.556Z,1008.78
2017-04-07T03:56:22.270Z,1008.65
2017-04-07T03:56:43.978Z,1008.73
2017-04-07T03:57:05.773Z,1008.68
2017-04-07T03:57:27.467Z,1008.77
2017-04-07T03:58:20.422Z,1008.72
2017-04-07T03:58:42.131Z,1008.57
2017-04-07T03:59:03.840Z,1008.69
2017-04-07T03:59:25.562Z,1009.07
2017-04-07T04:00:18.613Z,1008.48
2017-04-07T04:00:40.310Z,1008.56
2017-04-07T04:01:02.040Z,1008.65
2017-04-07T04:01:23.825Z,1008.60
2017-04-07T04:01:45.562Z,1008.72
2017-04-07T04:02:07.268Z,1008.67
2017-04-07T04:02:28.968Z,1008.91
2017-04-07T04:02:50.760Z,1008.76
2017-04-07T04:03:17.244Z,1008.63
2017-04-07T04:03:38.975Z,1008.56
2017-04-07T04:04:00.695Z,1008.74
2017-04-07T04:04:27.193Z,1008.61
2017-04-07T04:04:48.987Z,1008.61
2017-04-07T04:05:10.703Z,1008.83
2017-04-07T04:05:37.165Z,1008.91
2017-04-07T04:05:58.960Z,1008.73
2017-04-07T04:06:52.012Z,1008.46
2017-04-07T04:07:13.719Z,1008.65
2017-04-07T04:07:40.183Z,1008.57
2017-04-07T04:08:01.896Z,1008.71
2017-04-07T04:08:28.378Z,1008.63
2017-04-07T04:08:50.229Z,1008.78
2017-04-07T04:09:11.906Z,1008.56
2017-04-07T04:10:04.972Z,1008.51
2017-04-07T04:10:31.464Z,1008.66
2017-04-07T04:10:53.167Z,1008.59
2017-04-07T04:11:14.967Z,1008.69
2017-04-07T04:11:36.676Z,1008.64
2017-04-07T04:11:58.367Z,1008.86
2017-04-07T04:12:51.419Z,1008.70
2017-04-07T04:13:13.125Z,1008.70
2017-04-07T04:13:34.829Z,1008.75
2017-04-07T04:13:56.625Z,1008.67
2017-04-07T04:14:23.109Z,1008.62
2017-04-07T04:14:44.861Z,1008.54
2017-04-07T04:15:11.368Z,1008.45
2017-04-07T04:15:33.150Z,1008.64
2017-04-07T04:15:59.662Z,1008.54
2017-04-07T04:16:21.439Z,1008.68
2017-04-07T04:16:43.134Z,1008.69
2017-04-07T04:17:09.613Z,1008.84
2017-04-07T04:17:33.525Z,1008.74
2017-04-07T04:17:55.311Z,1008.71
2017-04-07T04:18:17.011Z,1008.58
2017-04-07T04:19:10.065Z,1008.67
2017-04-07T04:20:03.059Z,1008.61
2017-04-07T04:21:01.331Z,1008.58
2017-04-07T04:21:23.046Z,1008.83
2017-04-07T04:22:24.208Z,1008.53
2017-04-07T04:22:45.916Z,1008.85
2017-04-07T04:23:38.966Z,1008.61
2017-04-07T04:24:00.770Z,1008.66
2017-04-07T04:24:27.255Z,1008.59
2017-04-07T04:24:49.062Z,1008.56
2017-04-07T04:25:10.839Z,1008.67
2017-04-07T04:25:32.622Z,1008.71
2017-04-07T04:25:54.410Z,1008.70
2017-04-07T04:26:16.202Z,1008.79
2017-04-07T04:27:09.165Z,1008.71
2017-04-07T04:27:35.667Z,1008.59
2017-04-07T04:27:57.451Z,1008.61
2017-04-07T04:28:24.017Z,1008.63
2017-04-07T04:28:45.815Z,1008.54
2017-04-07T04:29:07.611Z,1008.58
2017-04-07T04:29:34.086Z,1008.82
2017-04-07T04:29:55.898Z,1008.58
2017-04-07T04:30:17.684Z,1008.70
2017-04-07T04:30:44.257Z,1009.01
2017-04-07T04:31:06.043Z,1008.73
2017-04-07T04:31:27.753Z,1008.75
2017-04-07T04:32:20.696Z,1008.85
2017-04-07T04:32:42.397Z,1008.91
2017-04-07T04:33:42.978Z,1008.78
2017-04-07T04:34:09.477Z,1008.69
2017-04-07T04:34:31.277Z,1008.67
2017-04-07T04:35:29.549Z,1008.67
2017-04-07T04:35:51.250Z,1008.67
2017-04-07T04:37:13.774Z,1008.91
2017-04-07T04:38:06.817Z,1008.60
2017-04-07T04:38:28.531Z,1008.64
2017-04-07T04:38:55.001Z,1008.61
2017-04-07T04:39:16.804Z,1008.73
2017-04-07T04:39:43.296Z,1008.50
2017-04-07T04:40:05.038Z,1008.71
2017-04-07T04:40:26.744Z,1008.92
2017-04-07T04:41:30.239Z,1008.80
2017-04-07T04:41:51.933Z,1008.74
2017-04-07T04:42:44.877Z,1008.97
2017-04-07T04:43:06.608Z,1008.81
2017-04-07T04:43:59.554Z,1008.77
2017-04-07T04:44:21.265Z,1008.82
2017-04-07T04:45:14.414Z,1008.63
2017-04-07T04:45:40.974Z,1008.77
2017-04-07T04:46:02.682Z,1008.72
2017-04-07T04:46:29.165Z,1008.80
2017-04-07T04:46:50.966Z,1008.68
2017-04-07T04:47:17.455Z,1008.65
2017-04-07T04:47:39.166Z,1008.62
2017-04-07T04:48:05.638Z,1008.66
2017-04-07T04:48:27.335Z,1008.68
2017-04-07T04:48:49.043Z,1008.63
2017-04-07T04:49:10.835Z,1008.93
2017-04-07T04:49:32.630Z,1008.81
2017-04-07T04:49:54.339Z,1008.65
2017-04-07T04:50:20.824Z,1008.57
2017-04-07T04:50:42.618Z,1008.74
2017-04-07T04:51:04.316Z,1008.61
2017-04-07T04:51:30.884Z,1008.63
2017-04-07T04:51:52.703Z,1008.75
2017-04-07T04:52:14.418Z,1008.81
2017-04-07T04:52:40.904Z,1008.95
2017-04-07T04:53:02.599Z,1008.66
2017-04-07T04:53:24.302Z,1008.51
2017-04-07T04:53:50.786Z,1008.68
2017-04-07T04:54:12.480Z,1008.67
2017-04-07T04:54:38.973Z,1008.81
2017-04-07T04:55:00.669Z,1008.61
2017-04-07T04:55:53.696Z,1008.69
2017-04-07T04:56:15.481Z,1008.76
2017-04-07T04:56:37.188Z,1009.00
2017-04-07T04:56:58.870Z,1008.63
2017-04-07T04:57:25.470Z,1008.60
2017-04-07T04:57:47.166Z,1008.71
2017-04-07T04:58:08.872Z,1008.64
2017-04-07T04:58:35.348Z,1008.65
2017-04-07T04:58:57.041Z,1008.68
2017-04-07T04:59:18.744Z,1008.72
2017-04-07T05:00:11.765Z,1008.71
2017-04-07T05:00:38.336Z,1008.83
2017-04-07T05:01:00.034Z,1008.77
2017-04-07T05:01:21.835Z,1008.61
2017-04-07T05:01:48.399Z,1008.78
2017-04-07T05:02:10.099Z,1008.72
2017-04-07T05:02:31.799Z,1008.86
2017-04-07T05:03:34.323Z,1008.71
2017-04-07T05:03:56.111Z,1008.78
2017-04-07T05:04:17.811Z,1008.79
2017-04-07T05:04:39.512Z,1008.72
2017-04-07T05:05:01.318Z,1008.55
2017-04-07T05:05:54.311Z,1008.60
2017-04-07T05:06:16.021Z,1008.90
2017-04-07T05:06:42.584Z,1009.03
2017-04-07T05:07:04.299Z,1008.98
2017-04-07T05:07:25.982Z,1008.90
2017-04-07T05:07:47.694Z,1008.78
2017-04-07T05:08:09.379Z,1008.80
2017-04-07T05:09:02.330Z,1008.81
2017-04-07T05:09:28.805Z,1008.86
2017-04-07T05:09:50.586Z,1008.80
2017-04-07T05:10:14.845Z,1008.72
2017-04-07T05:10:36.569Z,1008.60
2017-04-07T05:10:58.412Z,1008.70
2017-04-07T05:11:24.904Z,1008.62
2017-04-07T05:11:46.585Z,1008.67
2017-04-07T05:12:08.288Z,1008.84
2017-04-07T05:12:34.750Z,1008.85
2017-04-07T05:12:56.451Z,1008.87
2017-04-07T05:13:18.141Z,1008.78
2017-04-07T05:13:39.843Z,1008.85
2017-04-07T05:14:01.538Z,1008.63
2017-04-07T05:14:23.231Z,1008.71
2017-04-07T05:14:44.934Z,1008.73
2017-04-07T05:15:06.631Z,1008.81
2017-04-07T05:15:28.326Z,1009.04
2017-04-07T05:15:50.024Z,1009.00
2017-04-07T05:16:11.741Z,1008.75
2017-04-07T05:16:33.438Z,1008.51
2017-04-07T05:16:55.140Z,1008.74
2017-04-07T05:17:21.613Z,1009.12
2017-04-07T05:17:43.371Z,1008.94
2017-04-07T05:18:05.088Z,1008.86
2017-04-07T05:18:31.560Z,1008.55
2017-04-07T05:18:53.261Z,1008.92
2017-04-07T05:19:14.950Z,1008.96
2017-04-07T05:19:36.647Z,1008.73
2017-04-07T05:19:58.336Z,1008.87
2017-04-07T05:20:20.033Z,1008.72
2017-04-07T05:20:46.515Z,1008.96
2017-04-07T05:21:08.210Z,1008.85
2017-04-07T05:21:29.908Z,1008.66
2017-04-07T05:21:51.608Z,1008.80
2017-04-07T05:22:13.299Z,1008.98
2017-04-07T05:22:34.992Z,1008.94
2017-04-07T05:22:56.695Z,1008.79
2017-04-07T05:23:18.394Z,1008.85
2017-04-07T05:23:40.096Z,1008.97
2017-04-07T05:24:33.060Z,1008.79
2017-04-07T05:24:54.762Z,1008.77
2017-04-07T05:25:47.700Z,1008.81
2017-04-07T05:26:09.402Z,1008.84
2017-04-07T05:26:31.108Z,1008.98
2017-04-07T05:26:52.800Z,1009.15
2017-04-07T05:27:14.499Z,1008.69
2017-04-07T05:27:40.958Z,1008.91
2017-04-07T05:28:02.649Z,1008.72
2017-04-07T05:28:29.128Z,1008.72
2017-04-07T05:28:50.826Z,1009.00
2017-04-07T05:29:12.515Z,1008.98
2017-04-07T05:30:05.473Z,1008.97
2017-04-07T05:30:27.181Z,1008.82
2017-04-07T05:30:48.883Z,1008.91
2017-04-07T05:31:10.616Z,1008.89
2017-04-07T05:31:32.328Z,1008.83
2017-04-07T05:31:54.030Z,1008.89
2017-04-07T05:32:15.729Z,1008.85
2017-04-07T05:32:37.419Z,1008.78
2017-04-07T05:32:59.123Z,1008.91
2017-04-07T05:33:20.821Z,1008.80
2017-04-07T05:33:42.524Z,1008.93
2017-04-07T05:34:09.000Z,1008.76
2017-04-07T05:34:30.700Z,1009.00
2017-04-07T05:34:52.399Z,1008.97
2017-04-07T05:35:18.882Z,1009.01
2017-04-07T05:36:26.123Z,1008.96
2017-04-07T05:37:23.877Z,1008.84
2017-04-07T05:37:45.765Z,1008.95
2017-04-07T05:38:07.512Z,1008.86
2017-04-07T05:38:29.265Z,1008.82
2017-04-07T05:38:51.056Z,1008.86
2017-04-07T05:39:12.784Z,1008.77